Time;durP1;ratioP1;P1;durP2;ratioP2;P2;SDS_P1;SDS_P2;PMS_P1;PMS_P2;Temp;Humidity;BMP_temperature;BMP_pressure;BME280_temperature;BME280_humidity;BME280_pressure;Samples;Min_cycle;Max_cycle;Signal;HPM_P1;HPM_P2
2022/10/28 00:00:17;;;;;;;6.72;5.05;;;;;;;8.39;63.18;94668.56;5053397;28;20025;-35
2022/10/28 00:02:43;;;;;;;6.80;4.38;;;;;;;8.49;62.74;94678.03;5068065;28;20035;-36
2022/10/28 00:05:08;;;;;;;11.80;5.13;;;;;;;8.59;62.34;94673.00;5072961;28;20110;-36
2022/10/28 00:07:34;;;;;;;7.07;4.50;;;;;;;8.35;62.56;94670.81;5071807;28;20504;-36
2022/10/28 00:09:59;;;;;;;6.45;4.20;;;;;;;8.52;61.87;94674.28;5053082;28;20024;-36
2022/10/28 00:12:25;;;;;;;7.10;4.75;;;;;;;8.43;61.79;94671.78;5052874;28;20024;-35
2022/10/28 00:14:50;;;;;;;11.80;4.63;;;;;;;8.27;61.96;94669.84;5052904;28;20036;-36
2022/10/28 00:17:16;;;;;;;10.73;4.05;;;;;;;7.96;62.67;94668.13;5052781;28;20043;-36
2022/10/28 00:19:41;;;;;;;5.45;3.40;;;;;;;7.86;62.88;94669.63;5052767;28;20017;-36
2022/10/28 00:22:07;;;;;;;7.10;4.07;;;;;;;7.96;62.55;94659.88;5052735;28;20035;-36
2022/10/28 00:24:32;;;;;;;6.20;3.67;;;;;;;7.76;64.08;94654.66;5052620;28;20087;-36
2022/10/28 00:26:57;;;;;;;4.63;3.67;;;;;;;7.71;64.22;94662.91;5070974;28;20055;-36
2022/10/28 00:29:23;;;;;;;6.07;4.07;;;;;;;7.78;63.82;94663.13;5061688;28;20033;-35
2022/10/28 00:31:49;;;;;;;8.85;4.18;;;;;;;7.74;63.74;94665.41;5052890;28;20082;-35
2022/10/28 00:34:17;;;;;;;8.63;3.92;;;;;;;7.55;64.39;94656.16;5052803;28;20508;-36
2022/10/28 00:36:43;;;;;;;4.13;2.83;;;;;;;7.76;63.34;94662.13;5052646;28;20029;-35
2022/10/28 00:39:20;;;;;;;6.00;4.10;;;;;;;7.47;63.29;94655.16;5052729;28;20079;-36
2022/10/28 00:41:51;;;;;;;5.25;3.20;;;;;;;7.72;63.22;94662.41;5052370;28;20017;-36
2022/10/28 00:44:38;;;;;;;4.05;2.67;;;;;;;7.70;62.62;94656.66;5052625;28;20016;-36
2022/10/28 00:47:05;;;;;;;5.28;2.70;;;;;;;7.61;62.10;94657.66;5052295;28;20059;-36
2022/10/28 00:49:32;;;;;;;7.05;4.40;;;;;;;7.65;62.04;94654.66;5034338;28;20033;-36
2022/10/28 00:52:01;;;;;;;8.30;4.63;;;;;;;7.67;62.58;94649.41;5034446;28;20025;-36
2022/10/28 00:54:27;;;;;;;7.20;4.55;;;;;;;7.75;62.72;94660.66;5034734;28;20029;-35
2022/10/28 00:56:54;;;;;;;10.77;4.38;;;;;;;7.47;62.75;94658.66;5034260;28;20667;-35
2022/10/28 00:59:30;;;;;;;8.80;4.00;;;;;;;7.53;63.13;94664.91;5034230;28;20027;-35
2022/10/28 01:01:55;;;;;;;8.02;4.60;;;;;;;7.34;63.15;94666.63;5034180;28;20021;-35
2022/10/28 01:04:21;;;;;;;9.30;3.58;;;;;;;7.26;63.59;94668.38;5039530;28;20047;-35
2022/10/28 01:06:47;;;;;;;7.70;4.32;;;;;;;7.30;63.84;94659.88;5053954;28;20024;-35
2022/10/28 01:09:12;;;;;;;12.70;5.32;;;;;;;7.40;63.38;94656.41;5054332;28;20099;-36
2022/10/28 01:11:38;;;;;;;8.50;4.35;;;;;;;7.33;63.56;94667.13;5072029;28;20085;-35
2022/10/28 01:14:31;;;;;;;6.22;3.63;;;;;;;7.31;63.71;94648.41;5072100;28;20028;-36
2022/10/28 01:17:19;;;;;;;8.20;4.30;;;;;;;7.20;63.46;94659.38;5071698;28;20089;-36
2022/10/28 01:20:22;;;;;;;8.13;4.10;;;;;;;7.25;63.20;94655.91;5058089;28;20500;-36
2022/10/28 01:23:00;;;;;;;10.55;3.75;;;;;;;7.19;63.47;94652.38;5071908;28;20477;-35
2022/10/28 01:25:44;;;;;;;8.15;3.33;;;;;;;7.07;63.42;94656.38;5065625;28;20052;-35
2022/10/28 01:28:33;;;;;;;5.22;3.00;;;;;;;6.96;63.50;94667.31;5052048;28;20024;-35
2022/10/28 01:31:04;;;;;;;5.63;2.92;;;;;;;6.91;63.55;94651.56;5071761;28;20400;-35
2022/10/28 01:33:29;;;;;;;3.35;2.15;;;;;;;6.82;64.08;94665.56;5053787;28;20457;-35
2022/10/28 01:36:06;;;;;;;4.10;2.50;;;;;;;6.67;64.46;94668.47;5071572;28;20048;-35
2022/10/28 01:38:36;;;;;;;5.47;3.92;;;;;;;6.66;64.44;94658.75;5071343;28;20020;-36
2022/10/28 01:41:12;;;;;;;11.15;5.35;;;;;;;6.57;64.26;94660.97;5071830;28;20023;-35
2022/10/28 01:43:46;;;;;;;5.53;3.55;;;;;;;6.58;64.52;94662.47;5071420;28;20382;-35
2022/10/28 01:46:37;;;;;;;6.10;3.40;;;;;;;6.81;63.78;94669.53;5053188;28;20059;-35
2022/10/28 01:49:27;;;;;;;11.30;3.72;;;;;;;6.64;64.32;94661.25;5070465;28;20043;-35
2022/10/28 01:51:59;;;;;;;4.68;3.80;;;;;;;6.73;64.56;94671.25;5036587;28;20035;-36
2022/10/28 01:54:26;;;;;;;6.82;3.63;;;;;;;6.53;64.90;94665.94;5053217;28;20538;-36
2022/10/28 01:56:52;;;;;;;7.22;4.05;;;;;;;6.48;65.20;94683.88;5053436;28;20024;-35
2022/10/28 01:59:23;;;;;;;9.13;4.38;;;;;;;6.46;65.00;94680.88;5052943;28;20386;-36
2022/10/28 02:01:49;;;;;;;8.68;3.80;;;;;;;6.52;65.11;94681.66;5037325;28;20028;-35
2022/10/28 02:04:14;;;;;;;13.13;6.43;;;;;;;6.58;65.03;94676.19;5050552;28;20060;-35
2022/10/28 02:06:42;;;;;;;4.97;3.70;;;;;;;6.58;65.21;94687.91;5050780;28;20061;-35
2022/10/28 02:09:44;;;;;;;6.78;4.38;;;;;;;6.44;65.30;94688.09;5050623;28;20028;-35
2022/10/28 02:12:19;;;;;;;4.25;2.72;;;;;;;6.40;65.47;94682.84;5051052;28;20033;-36
2022/10/28 02:15:08;;;;;;;10.07;2.97;;;;;;;6.41;65.29;94667.16;5033185;28;20103;-35
2022/10/28 02:17:54;;;;;;;3.88;3.22;;;;;;;6.51;65.71;94682.16;5050910;28;20020;-35
2022/10/28 02:20:25;;;;;;;4.70;2.33;;;;;;;6.60;65.16;94690.16;5032905;28;20025;-35
2022/10/28 02:22:55;;;;;;;3.53;2.22;;;;;;;6.52;65.06;94676.16;5050570;28;20512;-35
2022/10/28 02:25:21;;;;;;;;;;;;;;;6.46;65.37;94682.88;5055825;28;20031;-35
2022/10/28 02:28:07;;;;;;;4.45;2.72;;;;;;;6.36;65.74;94687.06;5052849;28;19916;-36
2022/10/28 02:30:49;;;;;;;8.15;3.22;;;;;;;6.38;65.04;94681.84;5050728;28;20032;-35
2022/10/28 02:33:18;;;;;;;6.57;2.33;;;;;;;6.28;64.87;94680.56;5032642;28;20493;-36
2022/10/28 02:35:47;;;;;;;7.05;4.10;;;;;;;6.21;64.24;94681.00;5049402;28;20024;-35
2022/10/28 02:38:24;;;;;;;7.03;4.53;;;;;;;5.97;64.92;94678.63;5050652;28;20174;-35
2022/10/28 02:40:53;;;;;;;9.77;5.15;;;;;;;5.73;64.68;94659.75;5050544;28;20021;-35
2022/10/28 02:43:21;;;;;;;8.52;4.25;;;;;;;5.95;64.56;94676.38;5049018;28;20025;-35
2022/10/28 02:45:48;;;;;;;6.88;4.20;;;;;;;5.99;63.90;94671.41;5050517;28;20021;-35
2022/10/28 02:48:32;;;;;;;9.98;4.18;;;;;;;6.11;64.22;94678.44;5032358;28;20032;-35
2022/10/28 02:51:10;;;;;;;8.43;4.03;;;;;;;6.05;63.71;94661.22;5032378;28;20083;-35
2022/10/28 02:53:45;;;;;;;7.63;4.13;;;;;;;5.98;64.69;94675.38;5048955;28;20033;-35
2022/10/28 02:56:12;;;;;;;9.15;4.75;;;;;;;6.11;65.36;94675.72;5053429;28;20055;-36
2022/10/28 02:58:39;;;;;;;28.08;5.97;;;;;;;6.15;65.15;94675.47;5049470;28;20029;-35
2022/10/28 03:01:05;;;;;;;12.00;4.40;;;;;;;6.07;65.32;94674.44;5037699;28;20036;-35
2022/10/28 03:03:30;;;;;;;7.85;4.20;;;;;;;6.05;65.50;94680.41;5074265;28;20024;-35
2022/10/28 03:05:56;;;;;;;17.15;5.00;;;;;;;5.80;65.40;94661.28;5056135;28;20044;-35
2022/10/28 03:08:24;;;;;;;5.07;3.30;;;;;;;5.82;65.37;94678.75;5074069;28;20028;-35
2022/10/28 03:10:50;;;;;;;8.73;3.83;;;;;;;5.74;65.50;94680.41;5074361;28;20047;-35
2022/10/28 03:13:15;;;;;;;22.40;4.35;;;;;;;5.99;64.90;94687.09;5074034;28;20504;-35
2022/10/28 03:15:40;;;;;;;6.80;2.92;;;;;;;5.84;65.29;94678.28;5074070;28;20028;-35
2022/10/28 03:18:06;;;;;;;4.50;2.90;;;;;;;5.65;65.49;94672.38;5073953;28;20028;-35
2022/10/28 03:20:31;;;;;;;4.10;2.65;;;;;;;5.84;65.49;94679.03;5073974;28;20025;-35
2022/10/28 03:22:57;;;;;;;4.78;3.20;;;;;;;5.76;65.38;94686.16;5073891;28;20024;-35
2022/10/28 03:25:22;;;;;;;5.40;2.88;;;;;;;5.79;65.00;94679.72;5068114;28;20078;-36
2022/10/28 03:27:48;;;;;;;4.43;3.38;;;;;;;5.53;65.25;94681.75;5054000;28;20029;-35
2022/10/28 03:30:13;;;;;;;7.47;5.35;;;;;;;5.74;64.73;94683.16;5071287;28;20032;-35
2022/10/28 03:32:41;;;;;;;9.55;6.22;;;;;;;5.85;64.65;94683.28;5055884;28;20603;-35
2022/10/28 03:35:07;;;;;;;8.90;5.10;;;;;;;5.90;64.35;94688.06;5073555;28;20025;-35
2022/10/28 03:37:32;;;;;;;8.20;4.78;;;;;;;5.92;64.31;94680.09;5055862;28;20016;-35
2022/10/28 03:40:00;;;;;;;7.35;4.20;;;;;;;5.66;65.43;94675.88;5073832;28;20117;-35
2022/10/28 03:42:25;;;;;;;9.27;4.20;;;;;;;5.78;65.35;94677.47;5073742;28;20021;-35
2022/10/28 03:44:51;;;;;;;8.60;4.13;;;;;;;5.48;65.81;94674.25;5073817;28;20024;-35
2022/10/28 03:47:16;;;;;;;7.50;4.03;;;;;;;5.54;65.64;94672.31;5073453;28;20018;-35
2022/10/28 03:49:42;;;;;;;6.80;3.45;;;;;;;5.32;66.29;94672.88;5073607;28;20512;-35
2022/10/28 03:52:07;;;;;;;6.28;3.47;;;;;;;5.30;65.98;94671.88;5073375;28;20496;-35
2022/10/28 03:54:32;;;;;;;6.03;2.83;;;;;;;5.41;65.65;94682.91;5055759;28;20033;-35
2022/10/28 03:56:58;;;;;;;6.35;3.47;;;;;;;5.47;65.80;94680.22;5063364;28;20019;-35
2022/10/28 03:59:23;;;;;;;6.95;4.00;;;;;;;4.99;66.00;94680.78;5073219;28;20458;-35
2022/10/28 04:01:49;;;;;;;8.40;3.17;;;;;;;5.28;65.65;94675.06;5065823;28;20048;-35
2022/10/28 04:04:14;;;;;;;4.97;3.00;;;;;;;5.17;65.82;94679.72;5052921;28;20045;-35
2022/10/28 04:06:40;;;;;;;6.13;3.78;;;;;;;5.09;65.96;94684.13;5053418;28;20017;-35
2022/10/28 04:09:05;;;;;;;4.10;2.70;;;;;;;5.08;66.15;94671.66;5053239;28;20032;-35
2022/10/28 04:11:30;;;;;;;3.58;3.03;;;;;;;4.97;66.81;94679.75;5052608;28;20032;-35
2022/10/28 04:13:56;;;;;;;6.22;4.25;;;;;;;5.07;66.54;94690.06;5052920;28;20021;-35
2022/10/28 04:16:21;;;;;;;6.80;4.38;;;;;;;5.22;65.77;94677.00;5052994;28;20017;-35
2022/10/28 04:18:47;;;;;;;7.78;4.97;;;;;;;5.12;66.40;94685.88;5052753;28;20028;-36
2022/10/28 04:21:12;;;;;;;7.70;4.55;;;;;;;5.12;67.00;94674.94;5053116;28;20025;-36
2022/10/28 04:23:38;;;;;;;7.60;4.28;;;;;;;5.23;66.05;94683.25;5052985;28;20139;-35
2022/10/28 04:26:03;;;;;;;6.45;4.00;;;;;;;5.28;66.14;94688.75;5063782;28;20042;-35
2022/10/28 04:28:29;;;;;;;7.35;4.53;;;;;;;4.88;65.71;94679.91;5069542;28;20025;-35
2022/10/28 04:30:54;;;;;;;13.70;6.50;;;;;;;4.70;66.25;94683.69;5052652;28;20436;-35
2022/10/28 04:33:20;;;;;;;30.30;10.07;;;;;;;4.72;66.22;94680.50;5052632;28;20025;-35
2022/10/28 04:35:45;;;;;;;18.10;8.88;;;;;;;4.51;66.93;94680.50;5052471;28;20024;-36
2022/10/28 04:38:11;;;;;;;20.02;8.82;;;;;;;4.48;66.94;94681.47;5052816;28;20020;-35
2022/10/28 04:40:37;;;;;;;10.82;7.18;;;;;;;4.67;67.00;94678.44;5052378;28;20386;-35
2022/10/28 04:43:03;;;;;;;19.15;6.97;;;;;;;4.67;66.56;94678.44;5052369;28;20394;-35
2022/10/28 04:45:28;;;;;;;20.23;8.00;;;;;;;4.71;66.09;94678.97;5052552;28;20033;-35
2022/10/28 04:47:58;;;;;;;18.25;8.13;;;;;;;4.70;65.39;94680.22;5052249;28;20505;-35
2022/10/28 04:50:23;;;;;;;7.72;4.60;;;;;;;4.53;65.93;94682.75;5066284;28;20025;-35
2022/10/28 04:52:49;;;;;;;10.88;3.03;;;;;;;4.59;65.51;94676.13;5072210;28;20154;-35
2022/10/28 04:55:14;;;;;;;12.82;3.40;;;;;;;4.59;65.72;94675.41;5072188;28;20021;-35
2022/10/28 04:57:39;;;;;;;4.40;2.60;;;;;;;4.64;65.65;94685.63;5056392;28;20467;-35
2022/10/28 05:00:05;;;;;;;5.93;3.28;;;;;;;4.58;65.78;94688.31;5052060;28;20067;-35
2022/10/28 05:02:31;;;;;;;7.30;4.45;;;;;;;4.58;66.18;94691.03;5051991;28;20025;-35
2022/10/28 05:05:01;;;;;;;17.45;4.40;;;;;;;4.82;65.42;94690.06;5051718;28;20045;-35
2022/10/28 05:07:26;;;;;;;9.27;5.78;;;;;;;4.14;66.48;94662.38;5051888;28;20025;-35
2022/10/28 05:09:52;;;;;;;8.82;4.80;;;;;;;4.57;66.52;94678.59;5051917;28;20079;-35
2022/10/28 05:12:17;;;;;;;69.82;9.18;;;;;;;4.55;66.46;94693.97;5052066;28;20074;-35
2022/10/28 05:14:42;;;;;;;19.13;6.70;;;;;;;4.38;67.24;94696.50;5051817;28;20417;-35
2022/10/28 05:17:09;;;;;;;32.92;9.75;;;;;;;4.41;67.57;94687.38;5051698;28;20021;-35
2022/10/28 05:19:35;;;;;;;12.88;7.43;;;;;;;4.71;66.83;94692.66;5051969;28;20024;-35
2022/10/28 05:22:00;;;;;;;25.35;7.85;;;;;;;4.74;66.47;94699.91;5050824;28;20025;-35
2022/10/28 05:24:26;;;;;;;14.57;6.28;;;;;;;4.70;66.46;94702.84;5051796;28;20159;-35
2022/10/28 05:26:51;;;;;;;35.38;15.68;;;;;;;4.65;66.17;94700.81;5051372;28;20489;-35
2022/10/28 05:29:18;;;;;;;31.50;17.73;;;;;;;4.56;66.99;94709.16;5061060;28;20129;-35
2022/10/28 05:31:44;;;;;;;39.53;10.40;;;;;;;4.62;67.40;94709.97;5071777;28;20028;-35
2022/10/28 05:34:10;;;;;;;25.45;11.60;;;;;;;4.61;66.94;94711.22;5071690;28;20028;-35
2022/10/28 05:36:35;;;;;;;19.45;7.45;;;;;;;4.55;67.66;94711.13;5071299;28;20475;-35
2022/10/28 05:39:01;;;;;;;17.67;9.43;;;;;;;4.68;66.94;94710.06;5071305;28;20020;-35
2022/10/28 05:41:26;;;;;;;21.55;10.00;;;;;;;4.55;66.72;94704.91;5071144;28;20057;-35
2022/10/28 05:43:52;;;;;;;29.10;9.38;;;;;;;4.55;66.67;94711.13;5071484;28;20017;-35
2022/10/28 05:46:17;;;;;;;19.85;11.10;;;;;;;4.61;66.21;94722.16;5059841;28;20527;-35
2022/10/28 05:48:43;;;;;;;118.70;17.70;;;;;;;4.52;66.67;94723.06;5051356;28;20017;-35
2022/10/28 05:51:08;;;;;;;27.60;11.63;;;;;;;4.63;65.90;94713.47;5051382;28;20052;-35
2022/10/28 05:53:33;;;;;;;29.45;13.73;;;;;;;4.55;66.07;94708.41;5051068;28;20520;-36
2022/10/28 05:55:59;;;;;;;39.80;14.07;;;;;;;4.50;66.39;94716.56;5052653;28;20017;-35
2022/10/28 05:58:24;;;;;;;30.67;13.23;;;;;;;4.77;65.97;94723.56;5071212;28;20020;-35
2022/10/28 06:00:50;;;;;;;41.40;14.32;;;;;;;4.97;65.87;94713.38;5071210;28;20025;-35
2022/10/28 06:03:15;;;;;;;47.10;15.35;;;;;;;5.18;65.29;94725.00;5051971;28;20032;-35
2022/10/28 06:05:43;;;;;;;38.60;13.50;;;;;;;5.31;65.09;94715.19;5050660;28;20061;-35
2022/10/28 06:08:10;;;;;;;29.90;11.57;;;;;;;5.37;65.37;94723.47;5050978;28;20032;-36
2022/10/28 06:10:37;;;;;;;68.22;13.18;;;;;;;5.37;65.65;94724.19;5050781;28;20057;-36
2022/10/28 06:13:02;;;;;;;92.18;16.05;;;;;;;5.46;66.38;94728.03;5050781;28;20039;-35
2022/10/28 06:15:27;;;;;;;42.78;15.68;;;;;;;5.53;67.04;94728.34;5050729;28;20060;-35
2022/10/28 06:17:53;;;;;;;48.58;19.30;;;;;;;5.74;66.74;94731.75;5050626;28;20095;-36
2022/10/28 06:20:19;;;;;;;83.15;31.45;;;;;;;5.90;66.52;94740.13;5050524;28;20033;-35
2022/10/28 06:22:51;;;;;;;86.13;30.65;;;;;;;6.08;66.83;94736.28;5050859;28;20029;-35
2022/10/28 06:25:17;;;;;;;67.60;30.25;;;;;;;6.43;66.60;94735.97;5054825;28;20100;-36
2022/10/28 06:27:42;;;;;;;69.68;34.55;;;;;;;6.95;65.69;94733.72;5070449;28;20150;-35
2022/10/28 06:30:08;;;;;;;73.35;36.15;;;;;;;7.56;64.54;94740.84;5053766;28;20114;-35
2022/10/28 06:32:34;;;;;;;109.18;58.67;;;;;;;8.36;62.88;94739.09;5050582;28;20099;-36
2022/10/28 06:34:59;;;;;;;75.60;40.20;;;;;;;9.28;60.99;94737.78;5050603;28;20025;-36
2022/10/28 06:37:25;;;;;;;84.57;44.03;;;;;;;10.01;59.16;94730.53;5050293;28;20087;-36
2022/10/28 06:39:51;;;;;;;85.15;45.17;;;;;;;10.79;57.01;94729.78;5050325;28;20021;-36
2022/10/28 06:42:17;;;;;;;66.10;35.85;;;;;;;11.40;54.83;94738.84;5059265;28;20063;-36
2022/10/28 06:44:43;;;;;;;60.97;36.50;;;;;;;12.15;53.18;94730.47;5070289;28;20497;-36
2022/10/28 06:47:08;;;;;;;50.17;26.80;;;;;;;13.48;50.96;94728.75;5070533;28;20028;-36
2022/10/28 06:49:34;;;;;;;24.55;13.02;;;;;;;15.17;47.36;94733.94;5070453;28;20533;-36
2022/10/28 06:51:59;;;;;;;21.33;11.38;;;;;;;16.67;43.79;94730.13;5070135;28;20032;-37
2022/10/28 06:54:24;;;;;;;16.60;9.32;;;;;;;18.08;41.14;94726.75;5070198;28;20043;-37
2022/10/28 06:56:50;;;;;;;19.10;9.63;;;;;;;19.25;38.16;94722.66;5061199;28;20025;-37
2022/10/28 06:59:15;;;;;;;21.85;9.52;;;;;;;20.42;36.26;94727.22;5050044;28;20037;-37
2022/10/28 07:01:41;;;;;;;13.60;9.05;;;;;;;21.54;34.44;94725.94;5050041;28;20106;-37
2022/10/28 07:04:10;;;;;;;13.35;7.50;;;;;;;22.50;33.12;94731.47;5050113;28;20063;-35
2022/10/28 07:06:36;;;;;;;14.07;7.60;;;;;;;23.17;31.63;94728.38;5050002;28;20082;-35
2022/10/28 07:09:01;;;;;;;12.93;7.05;;;;;;;23.70;31.24;94724.91;5049959;28;20017;-35
2022/10/28 07:11:27;;;;;;;11.70;7.93;;;;;;;24.09;30.51;94728.91;5049920;28;20017;-35
2022/10/28 07:13:52;;;;;;;15.15;9.60;;;;;;;24.81;29.12;94717.91;5049992;28;20025;-35
2022/10/28 07:16:17;;;;;;;17.13;8.80;;;;;;;25.19;28.68;94719.47;5049873;28;20026;-35
2022/10/28 07:18:43;;;;;;;9.98;5.90;;;;;;;25.52;27.70;94720.81;5049936;28;20028;-35
2022/10/28 07:21:08;;;;;;;16.48;10.73;;;;;;;25.86;28.00;94718.50;5049900;28;20025;-35
2022/10/28 07:23:34;;;;;;;17.60;9.98;;;;;;;26.28;26.96;94718.81;5049873;28;20017;-35
2022/10/28 07:25:59;;;;;;;29.23;16.50;;;;;;;26.50;27.02;94722.16;5049579;28;20561;-35
2022/10/28 07:28:26;;;;;;;20.73;13.40;;;;;;;26.83;26.26;94713.34;5052260;28;20021;-35
2022/10/28 07:30:52;;;;;;;11.82;7.63;;;;;;;27.52;25.55;94724.09;5069786;28;20028;-35
2022/10/28 07:33:17;;;;;;;8.18;4.75;;;;;;;27.76;24.75;94716.06;5070093;28;20028;-35
2022/10/28 07:35:43;;;;;;;4.10;3.17;;;;;;;27.97;24.87;94710.06;5069835;28;20063;-35
2022/10/28 07:38:09;;;;;;;3.33;2.17;;;;;;;28.19;24.32;94716.09;5063801;28;20017;-35
2022/10/28 07:40:35;;;;;;;2.58;2.38;;;;;;;28.36;24.72;94718.31;5049771;28;20115;-35
2022/10/28 07:43:00;;;;;;;78.72;7.95;;;;;;;28.50;24.13;94716.88;5049671;28;20096;-35
2022/10/28 07:45:26;;;;;;;6.43;3.15;;;;;;;28.77;23.84;94709.63;5051704;28;20017;-35
2022/10/28 07:47:51;;;;;;;9.85;3.65;;;;;;;28.39;23.48;94705.69;5053656;28;20033;-35
2022/10/28 07:50:17;;;;;;;20.58;4.57;;;;;;;28.26;24.23;94710.03;5053737;28;20024;-35
2022/10/28 07:52:43;;;;;;;13.60;5.32;;;;;;;28.67;24.03;94701.38;5053655;28;20442;-35
2022/10/28 07:55:10;;;;;;;23.77;7.55;;;;;;;29.57;23.21;94713.25;5053595;28;20407;-35
2022/10/28 07:57:36;;;;;;;18.45;7.18;;;;;;;29.89;22.72;94703.25;5068568;28;20074;-35
2022/10/28 08:00:02;;;;;;;9.77;6.63;;;;;;;30.12;22.13;94707.03;5073502;28;20471;-35
2022/10/28 08:02:28;;;;;;;16.58;5.88;;;;;;;29.80;22.70;94700.72;5060673;28;20108;-35
2022/10/28 08:04:55;;;;;;;6.72;4.68;;;;;;;30.22;21.79;94705.31;5053187;28;20495;-35
2022/10/28 08:07:21;;;;;;;22.45;5.07;;;;;;;30.43;21.91;94698.34;5053036;28;20551;-35
2022/10/28 08:09:46;;;;;;;7.95;4.45;;;;;;;30.66;21.78;94700.69;5052940;28;20017;-35
2022/10/28 08:12:13;;;;;;;9.10;4.28;;;;;;;30.77;21.54;94705.38;5052994;28;20060;-35
2022/10/28 08:14:38;;;;;;;6.25;3.20;;;;;;;30.74;21.95;94700.97;5052956;28;20032;-35
2022/10/28 08:17:04;;;;;;;3.40;2.85;;;;;;;30.84;21.75;94704.22;5052942;28;20047;-35
2022/10/28 08:19:30;;;;;;;3.08;2.30;;;;;;;29.79;22.18;94700.00;5053082;28;20020;-35
2022/10/28 08:21:55;;;;;;;2.63;2.08;;;;;;;29.66;22.53;94697.97;5053176;28;20024;-35
2022/10/28 08:24:21;;;;;;;2.55;2.05;;;;;;;29.60;23.07;94702.69;5052797;28;20404;-35
2022/10/28 08:26:46;;;;;;;6.65;2.50;;;;;;;28.83;23.47;94701.34;5069431;28;20020;-34
2022/10/28 08:29:12;;;;;;;2.15;1.90;;;;;;;29.15;23.69;94700.72;5063564;28;20025;-35
2022/10/28 08:31:38;;;;;;;2.75;1.83;;;;;;;29.44;23.19;94699.13;5052614;28;20143;-35
2022/10/28 08:34:05;;;;;;;2.72;1.98;;;;;;;29.44;23.21;94699.88;5055826;28;20029;-35
2022/10/28 08:36:31;;;;;;;2.63;2.28;;;;;;;29.19;22.76;94703.75;5072483;28;20025;-35
2022/10/28 08:38:58;;;;;;;4.38;1.95;;;;;;;29.02;23.07;94697.97;5072484;28;20020;-35
2022/10/28 08:41:37;;;;;;;2.92;1.92;;;;;;;28.32;23.92;94704.66;5072507;28;20028;-35
2022/10/28 08:44:31;;;;;;;5.15;2.17;;;;;;;28.05;24.75;94706.88;5054747;28;20024;-35
2022/10/28 08:47:15;;;;;;;4.18;2.08;;;;;;;28.59;23.71;94700.25;5072645;28;20111;-35
2022/10/28 08:49:41;;;;;;;3.08;2.20;;;;;;;28.38;23.92;94704.97;5072532;28;20154;-35
2022/10/28 08:52:24;;;;;;;3.85;2.10;;;;;;;27.67;24.68;94711.34;5072321;28;20048;-35
2022/10/28 08:54:54;;;;;;;3.67;2.25;;;;;;;27.61;24.58;94699.72;5072094;28;20526;-35
2022/10/28 08:57:29;;;;;;;3.75;1.90;;;;;;;27.60;25.00;94710.31;5052950;28;20016;-35
2022/10/28 08:59:55;;;;;;;3.50;2.13;;;;;;;27.44;25.62;94703.81;5072261;28;20401;-34
2022/10/28 09:02:25;;;;;;;2.75;2.00;;;;;;;27.62;24.41;94706.84;5060308;28;20021;-35
2022/10/28 09:05:16;;;;;;;4.50;2.00;;;;;;;27.72;24.38;94698.84;5051767;28;20045;-35
2022/10/28 09:07:42;;;;;;;3.33;2.30;;;;;;;28.51;23.42;94695.63;5052264;28;20032;-35
2022/10/28 09:10:13;;;;;;;3.38;2.30;;;;;;;28.14;23.17;94692.44;5051863;28;20028;-35
2022/10/28 09:12:44;;;;;;;2.47;1.90;;;;;;;27.99;23.63;94693.13;5051795;28;20025;-35
2022/10/28 09:15:21;;;;;;;2.03;1.83;;;;;;;28.00;23.46;94686.09;5052118;28;20052;-35
2022/10/28 09:17:47;;;;;;;1.92;1.70;;;;;;;27.57;23.57;94694.56;5034073;28;20052;-34
2022/10/28 09:20:19;;;;;;;2.13;1.80;;;;;;;27.07;23.95;94688.38;5051740;28;20056;-35
2022/10/28 09:22:53;;;;;;;4.88;2.35;;;;;;;26.89;24.71;94691.72;5051956;28;20024;-35
2022/10/28 09:25:37;;;;;;;5.15;2.20;;;;;;;26.98;24.07;94682.25;5038759;28;20095;-35
2022/10/28 09:28:40;;;;;;;3.05;2.10;;;;;;;27.34;23.39;94679.84;5071431;28;20024;-35
2022/10/28 09:31:13;;;;;;;59.72;5.43;;;;;;;27.49;23.55;94673.53;5060989;28;20039;-35
2022/10/28 09:33:49;;;;;;;2.63;1.85;;;;;;;27.93;23.52;94667.25;5053885;28;20028;-35
2022/10/28 09:36:24;;;;;;;1.63;1.52;;;;;;;27.81;22.72;94663.09;5071403;28;20527;-34
2022/10/28 09:39:22;;;;;;;2.40;1.77;;;;;;;27.48;23.41;94667.13;5053813;28;20606;-35
2022/10/28 09:41:48;;;;;;;3.58;2.20;;;;;;;27.46;23.64;94664.19;5053474;28;20523;-35
2022/10/28 09:44:38;;;;;;;2.53;1.92;;;;;;;26.81;23.82;94654.44;5053479;28;20029;-34
2022/10/28 09:47:14;;;;;;;2.30;2.00;;;;;;;26.35;24.39;94654.03;5053435;28;20021;-34
2022/10/28 09:49:40;;;;;;;3.40;2.08;;;;;;;26.48;24.20;94656.91;5053599;28;20116;-34
2022/10/28 09:52:22;;;;;;;2.35;1.70;;;;;;;26.79;24.24;94656.44;5053293;28;20020;-34
2022/10/28 09:54:50;;;;;;;2.40;1.90;;;;;;;26.89;24.34;94646.38;5053118;28;20024;-35
2022/10/28 09:57:16;;;;;;;2.10;1.90;;;;;;;27.22;24.02;94645.22;5041304;28;20027;-35
2022/10/28 09:59:41;;;;;;;4.93;3.22;;;;;;;27.52;24.18;94635.41;5051022;28;20404;-35
2022/10/28 10:02:28;;;;;;;6.10;1.70;;;;;;;27.80;22.75;94645.31;5051206;28;20061;-35
2022/10/28 10:04:58;;;;;;;1.52;1.42;;;;;;;28.31;22.43;94637.84;5050748;28;20049;-35
2022/10/28 10:07:34;;;;;;;2.30;1.65;;;;;;;28.31;21.95;94637.84;5050805;28;20025;-34
2022/10/28 10:10:04;;;;;;;3.22;1.80;;;;;;;27.65;23.25;94637.47;5033291;28;20417;-34
2022/10/28 10:12:30;;;;;;;1.77;1.60;;;;;;;28.13;22.36;94627.75;5033302;28;20386;-35
2022/10/28 10:14:57;;;;;;;4.38;1.83;;;;;;;27.24;23.13;94631.13;5033314;28;20032;-34
2022/10/28 10:17:34;;;;;;;3.83;1.95;;;;;;;27.48;23.81;94621.03;5050708;28;20438;-35
2022/10/28 10:20:17;;;;;;;3.53;2.08;;;;;;;28.16;22.58;94621.53;5050907;28;20056;-35
2022/10/28 10:22:44;;;;;;;3.08;1.70;;;;;;;27.99;22.65;94622.13;5050535;28;20029;-35
2022/10/28 10:25:19;;;;;;;99.65;9.40;;;;;;;28.09;22.81;94619.06;5032352;28;20032;-34
2022/10/28 10:27:53;;;;;;;5.68;2.30;;;;;;;27.50;22.89;94612.63;5063274;28;20515;-34
2022/10/28 10:30:35;;;;;;;3.70;1.50;;;;;;;26.71;23.56;94619.13;5052363;28;20043;-34
2022/10/28 10:33:01;;;;;;;2.97;2.05;;;;;;;26.05;25.46;94614.16;5032675;28;20029;-34
2022/10/28 10:35:35;;;;;;;2.50;1.83;;;;;;;26.73;24.73;94617.19;5032806;28;20067;-34
2022/10/28 10:38:03;;;;;;;1.85;1.55;;;;;;;27.21;24.09;94615.38;5050499;28;20060;-35
2022/10/28 10:40:39;;;;;;;4.10;1.70;;;;;;;27.89;22.96;94613.13;5050304;28;20032;-35
2022/10/28 10:43:21;;;;;;;2.97;1.77;;;;;;;28.04;22.97;94603.94;5050563;28;20397;-35
2022/10/28 10:46:13;;;;;;;2.55;1.50;;;;;;;27.51;22.84;94600.63;5050389;28;20029;-34
2022/10/28 10:48:39;;;;;;;4.60;1.67;;;;;;;28.03;22.54;94607.38;5050456;28;20099;-34
2022/10/28 10:51:25;;;;;;;3.25;2.47;;;;;;;28.49;22.04;94590.41;5050279;28;20029;-35
2022/10/28 10:53:59;;;;;;;8.63;5.22;;;;;;;28.39;22.14;94594.91;5049695;28;20065;-34
2022/10/28 10:56:30;;;;;;;2.60;1.90;;;;;;;28.52;21.90;94591.94;5050475;28;20397;-34
2022/10/28 10:59:00;;;;;;;3.15;1.60;;;;;;;28.69;21.79;94595.56;5050204;28;20025;-34
2022/10/28 11:01:27;;;;;;;2.58;1.70;;;;;;;28.51;21.57;94593.34;5050793;28;20025;-34
2022/10/28 11:04:17;;;;;;;2.58;1.45;;;;;;;28.02;21.93;94583.22;5050339;28;20029;-34
2022/10/28 11:06:43;;;;;;;2.40;1.73;;;;;;;28.06;22.59;94581.31;5020098;28;20071;-34
2022/10/28 11:09:31;;;;;;;3.97;1.70;;;;;;;28.02;22.31;94577.56;5050263;28;20033;-34
2022/10/28 11:11:57;;;;;;;3.40;2.90;;;;;;;27.49;23.13;94569.31;5050324;28;20027;-34
2022/10/28 11:14:29;;;;;;;25.05;12.23;;;;;;;28.25;22.80;94575.09;5032488;28;20021;-35
2022/10/28 11:16:59;;;;;;;11.80;7.38;;;;;;;28.71;22.19;94587.13;5050207;28;20051;-34
2022/10/28 11:19:36;;;;;;;7.30;5.20;;;;;;;28.66;22.20;94574.09;5049972;28;20024;-35
2022/10/28 11:22:42;;;;;;;10.18;5.60;;;;;;;28.84;22.05;94572.81;5053938;28;20022;-35
2022/10/28 11:25:28;;;;;;;2.45;1.75;;;;;;;29.33;21.06;94563.50;5057196;28;20058;-35
2022/10/28 11:28:21;;;;;;;2.38;1.80;;;;;;;29.22;20.56;94568.03;5073857;28;20072;-34
2022/10/28 11:30:58;;;;;;;3.40;1.58;;;;;;;29.12;20.58;94562.66;5053790;28;20021;-35
2022/10/28 11:33:43;;;;;;;3.42;2.33;;;;;;;28.54;21.77;94568.59;5054078;28;20108;-34
2022/10/28 11:36:37;;;;;;;3.50;1.90;;;;;;;28.06;21.56;94555.75;5053759;28;20523;-34
2022/10/28 11:39:19;;;;;;;5.95;2.95;;;;;;;27.55;22.94;94552.59;5035688;28;20086;-34
2022/10/28 11:42:06;;;;;;;3.53;1.90;;;;;;;27.52;22.77;94562.41;5053676;28;20045;-34
2022/10/28 11:45:03;;;;;;;2.35;2.03;;;;;;;27.35;23.08;94551.63;5053697;28;20031;-34
2022/10/28 11:47:43;;;;;;;8.65;3.78;;;;;;;27.63;22.98;94547.31;5052265;28;20037;-35